Time;durP1;ratioP1;P1;durP2;ratioP2;P2;SDS_P1;SDS_P2;PMS_P1;PMS_P2;Temp;Humidity;BMP_temperature;BMP_pressure;BME280_temperature;BME280_humidity;BME280_pressure;Samples;Min_cycle;Max_cycle;Signal;HPM_P1;HPM_P2
2021/07/14 00:01:05;;;;;;;38.47;25.40;;;24.60;80.70;;;;;;5076872;28;20035;-78
2021/07/14 00:03:31;;;;;;;40.05;24.88;;;24.50;81.10;;;;;;5094727;28;20085;-79
2021/07/14 00:05:57;;;;;;;35.55;24.17;;;24.50;81.40;;;;;;5094867;28;20725;-80
2021/07/14 00:08:23;;;;;;;42.45;26.30;;;24.40;81.60;;;;;;5094432;28;20028;-79
2021/07/14 00:10:49;;;;;;;43.55;27.25;;;24.40;81.80;;;;;;5094691;28;20462;-79
2021/07/14 00:23:38;;;;;;;36.05;22.67;;;24.20;81.80;;;;;;5094663;28;20039;-80
2021/07/14 00:26:03;;;;;;;37.67;23.85;;;24.20;82.00;;;;;;5094184;28;20470;-80
2021/07/14 00:28:29;;;;;;;37.72;24.92;;;24.20;82.10;;;;;;5094553;28;20035;-80
2021/07/14 00:30:57;;;;;;;41.28;25.58;;;24.20;82.10;;;;;;5094384;28;20052;-79
2021/07/14 00:33:26;;;;;;;39.08;26.60;;;24.10;82.10;;;;;;5094262;28;20109;-79
2021/07/14 00:35:52;;;;;;;38.67;26.33;;;24.10;82.20;;;;;;5093881;28;20035;-79
2021/07/14 00:38:18;;;;;;;49.38;24.77;;;24.20;82.50;;;;;;5094065;28;20024;-78
2021/07/14 00:40:44;;;;;;;37.65;25.02;;;24.20;82.80;;;;;;5094529;28;20023;-79
2021/07/14 00:43:09;;;;;;;37.30;27.38;;;24.20;84.10;;;;;;5093943;28;20101;-77
2021/07/14 00:45:36;;;;;;;43.88;28.55;;;24.20;84.40;;;;;;5093200;28;20116;-76
2021/07/14 00:48:02;;;;;;;38.08;26.58;;;24.20;84.50;;;;;;5093313;28;20389;-76
2021/07/14 00:50:28;;;;;;;41.92;28.13;;;24.20;84.30;;;;;;5093134;28;20017;-76
2021/07/14 00:52:54;;;;;;;38.45;26.92;;;24.20;84.30;;;;;;5092930;28;20077;-76
2021/07/14 00:55:20;;;;;;;37.67;27.77;;;24.20;84.40;;;;;;5092667;28;20052;-76
2021/07/14 00:57:46;;;;;;;39.08;27.92;;;24.10;85.00;;;;;;5093085;28;20458;-76
2021/07/14 01:00:12;;;;;;;37.47;28.58;;;24.10;85.60;;;;;;5093291;28;20035;-76
2021/07/14 01:02:39;;;;;;;42.00;28.83;;;24.10;85.90;;;;;;5093313;28;20351;-76
2021/07/14 01:05:04;;;;;;;39.58;28.35;;;24.10;86.10;;;;;;5092724;28;20024;-76
2021/07/14 01:07:52;;;;;;;37.83;27.45;;;24.10;86.30;;;;;;5092749;28;20039;-76
2021/07/14 01:10:29;;;;;;;38.75;27.95;;;24.10;86.70;;;;;;5092919;28;20595;-76
2021/07/14 01:13:35;;;;;;;38.50;27.60;;;24.10;87.10;;;;;;5092860;28;20158;-76
2021/07/14 01:16:07;;;;;;;36.05;27.83;;;24.00;87.40;;;;;;5074453;28;20078;-76
2021/07/14 01:18:40;;;;;;;38.10;27.48;;;24.00;87.80;;;;;;5092771;28;20114;-76
2021/07/14 01:21:43;;;;;;;40.17;30.65;;;24.00;88.20;;;;;;5092645;28;20023;-76
2021/07/14 01:24:23;;;;;;;40.17;30.00;;;24.00;88.80;;;;;;5088491;28;20024;-76
2021/07/14 01:27:06;;;;;;;43.28;30.80;;;23.90;89.00;;;;;;5092626;28;20083;-76
2021/07/14 01:29:35;;;;;;;46.20;34.70;;;23.90;89.60;;;;;;5092117;28;20439;-76
2021/07/14 01:32:03;;;;;;;46.75;32.97;;;23.90;90.00;;;;;;5092434;28;20024;-76
2021/07/14 01:34:31;;;;;;;38.33;29.17;;;23.90;90.20;;;;;;5092130;28;20024;-76
2021/07/14 01:36:59;;;;;;;41.38;30.80;;;23.90;90.40;;;;;;5092346;28;20133;-76
2021/07/14 01:39:28;;;;;;;44.33;29.58;;;23.80;90.20;;;;;;5092222;28;20023;-76
2021/07/14 01:41:55;;;;;;;42.42;29.10;;;23.80;90.00;;;;;;5092186;28;20073;-75
2021/07/14 01:44:25;;;;;;;36.53;27.00;;;23.70;89.90;;;;;;5092069;28;20429;-75
2021/07/14 01:46:57;;;;;;;36.67;26.65;;;23.70;90.20;;;;;;5091875;28;20027;-75
2021/07/14 01:49:23;;;;;;;;;;;23.70;90.30;;;;;;5092218;28;20016;-75
2021/07/14 01:51:56;;;;;;;37.85;26.95;;;23.70;90.00;;;;;;5091715;28;19904;-75
2021/07/14 01:54:23;;;;;;;39.20;26.00;;;23.70;90.40;;;;;;5091327;28;20436;-75
2021/07/14 01:56:51;;;;;;;33.03;24.58;;;23.70;90.60;;;;;;5091837;28;20428;-75
2021/07/14 01:59:18;;;;;;;30.67;24.48;;;23.70;90.90;;;;;;5091943;28;20385;-76
2021/07/14 02:01:46;;;;;;;26.65;22.75;;;23.80;91.10;;;;;;5091971;28;20462;-76
2021/07/14 02:04:32;;;;;;;33.63;24.75;;;23.80;91.40;;;;;;5091977;28;20052;-76
2021/07/14 02:07:14;;;;;;;29.60;24.80;;;23.80;91.60;;;;;;5091849;28;20024;-76
2021/07/14 02:09:41;;;;;;;28.45;25.00;;;23.80;91.70;;;;;;5073800;28;20070;-76
2021/07/14 02:12:13;;;;;;;30.65;24.00;;;23.80;91.80;;;;;;5091912;28;20051;-75
2021/07/14 02:14:57;;;;;;;32.50;23.88;;;23.90;92.00;;;;;;5091774;28;20420;-75
2021/07/14 02:17:25;;;;;;;29.38;24.27;;;23.90;92.10;;;;;;5091987;28;20043;-75
2021/07/14 02:20:03;;;;;;;30.95;23.80;;;24.00;92.10;;;;;;5091633;28;20016;-76
2021/07/14 02:22:29;;;;;;;33.28;24.23;;;24.10;92.30;;;;;;5093466;28;20107;-79
2021/07/14 02:24:55;;;;;;;32.15;22.48;;;24.20;92.30;;;;;;5093268;28;20118;-78
2021/07/14 02:27:21;;;;;;;30.63;23.33;;;24.40;92.20;;;;;;5093763;28;20024;-80
2021/07/14 02:29:50;;;;;;;32.33;23.92;;;24.60;91.80;;;;;;5093604;28;20035;-79
2021/07/14 02:32:18;;;;;;;30.05;23.52;;;24.80;91.30;;;;;;5093255;28;20036;-79
2021/07/14 02:34:47;;;;;;;31.65;22.80;;;25.10;90.60;;;;;;5075393;28;20036;-79
2021/07/14 02:37:23;;;;;;;30.05;21.40;;;25.40;89.90;;;;;;5093704;28;20107;-79
2021/07/14 02:39:52;;;;;;;26.88;21.48;;;25.80;88.40;;;;;;5093108;28;20580;-79
2021/07/14 02:42:27;;;;;;;27.50;20.60;;;26.20;87.20;;;;;;5095049;28;20016;-80
2021/07/14 02:44:53;;;;;;;26.42;20.75;;;26.60;85.90;;;;;;5096896;28;20031;-78
2021/07/14 02:47:21;;;;;;;31.23;21.55;;;27.10;84.40;;;;;;5095959;28;20031;-79
2021/07/14 02:49:48;;;;;;;25.65;20.27;;;27.60;82.70;;;;;;5096074;28;20020;-79
2021/07/14 02:52:14;;;;;;;26.27;19.60;;;28.00;81.20;;;;;;5077954;28;20077;-78
2021/07/14 02:54:44;;;;;;;25.30;20.05;;;28.50;79.60;;;;;;5095676;28;20052;-77
2021/07/14 02:57:13;;;;;;;26.15;18.60;;;29.00;77.90;;;;;;5095881;28;20020;-79
2021/07/14 02:59:42;;;;;;;26.90;19.17;;;29.50;76.30;;;;;;5096078;28;20024;-78
2021/07/14 03:02:10;;;;;;;28.23;18.42;;;30.10;74.90;;;;;;5096011;28;20366;-79
2021/07/14 03:04:39;;;;;;;23.00;18.83;;;30.60;73.90;;;;;;5095850;28;20027;-78
2021/07/14 03:07:10;;;;;;;22.08;18.45;;;31.20;71.70;;;;;;5095830;28;20058;-79
2021/07/14 03:09:39;;;;;;;24.90;17.47;;;31.70;70.30;;;;;;5095755;28;20489;-78
2021/07/14 03:12:11;;;;;;;23.40;18.65;;;32.20;68.90;;;;;;5095680;28;20106;-79
2021/07/14 03:14:43;;;;;;;22.17;16.98;;;32.70;67.40;;;;;;5095517;28;20023;-78
2021/07/14 03:17:11;;;;;;;24.10;17.00;;;33.20;66.10;;;;;;5095181;28;20027;-78
2021/07/14 03:19:39;;;;;;;20.83;16.58;;;33.70;65.00;;;;;;5094959;28;20012;-78
2021/07/14 03:22:06;;;;;;;21.15;16.98;;;34.20;63.70;;;;;;5077036;28;20109;-79
2021/07/14 03:24:34;;;;;;;20.90;16.08;;;34.70;62.60;;;;;;5095144;28;20028;-78
2021/07/14 03:27:03;;;;;;;21.80;17.45;;;35.30;61.50;;;;;;5094793;28;20024;-78
2021/07/14 03:29:31;;;;;;;23.10;17.58;;;35.70;60.30;;;;;;5094987;28;20081;-77
2021/07/14 03:31:57;;;;;;;22.33;18.10;;;36.20;59.40;;;;;;5094959;28;20412;-77
2021/07/14 03:34:23;;;;;;;33.20;20.20;;;36.70;58.50;;;;;;5077169;28;20032;-78
2021/07/14 03:36:50;;;;;;;28.15;18.83;;;37.10;57.60;;;;;;5076864;28;20073;-78
2021/07/14 03:39:17;;;;;;;27.15;21.73;;;37.70;56.70;;;;;;5094881;28;20559;-78
2021/07/14 03:41:44;;;;;;;22.75;20.25;;;38.20;55.80;;;;;;5095070;28;20366;-78
2021/07/14 03:44:13;;;;;;;27.27;18.02;;;38.70;54.80;;;;;;5076350;28;20035;-77
2021/07/14 03:46:40;;;;;;;21.27;17.05;;;39.20;53.90;;;;;;5094538;28;20024;-78
2021/07/14 03:49:06;;;;;;;19.80;15.85;;;39.60;53.00;;;;;;5076372;28;20024;-78
2021/07/14 03:51:33;;;;;;;20.35;14.38;;;40.10;52.10;;;;;;5094618;28;20031;-78
2021/07/14 03:53:59;;;;;;;17.90;14.50;;;40.50;51.30;;;;;;5094422;28;20082;-78
2021/07/14 03:56:26;;;;;;;18.15;14.05;;;40.90;50.30;;;;;;5094095;28;20051;-77
2021/07/14 03:58:56;;;;;;;16.08;14.43;;;41.30;49.70;;;;;;5094407;28;20115;-77
2021/07/14 04:01:23;;;;;;;22.33;16.25;;;41.60;48.80;;;;;;5094793;28;20023;-78
2021/07/14 04:03:52;;;;;;;17.67;15.48;;;42.00;48.30;;;;;;5094505;28;20024;-78
2021/07/14 04:06:20;;;;;;;23.50;16.40;;;42.40;47.70;;;;;;5093912;28;20020;-78
2021/07/14 04:09:06;;;;;;;22.17;15.60;;;42.80;47.40;;;;;;5094162;28;20078;-79
2021/07/14 04:11:32;;;;;;;15.02;13.38;;;43.20;46.60;;;;;;5093487;28;20107;-79
2021/07/14 04:13:58;;;;;;;17.75;15.90;;;43.60;46.00;;;;;;5093781;28;20043;-78
2021/07/14 04:16:24;;;;;;;16.33;14.73;;;43.90;45.70;;;;;;5093569;28;20028;-77
2021/07/14 04:18:49;;;;;;;14.32;12.30;;;44.10;45.20;;;;;;5093650;28;20020;-78
2021/07/14 04:21:15;;;;;;;14.80;12.50;;;44.50;44.50;;;;;;5093425;28;20024;-78
2021/07/14 04:23:41;;;;;;;16.90;12.15;;;44.80;44.10;;;;;;5093125;28;20016;-78
2021/07/14 04:26:06;;;;;;;16.02;11.75;;;45.00;44.00;;;;;;5092599;28;20042;-77
2021/07/14 04:28:33;;;;;;;13.70;11.40;;;45.20;43.80;;;;;;5092868;28;20312;-78
2021/07/14 04:30:59;;;;;;;12.23;10.10;;;45.50;43.10;;;;;;5093256;28;20028;-78
2021/07/14 04:33:25;;;;;;;13.57;10.35;;;45.70;42.80;;;;;;5075017;28;20028;-75
2021/07/14 04:35:50;;;;;;;17.20;13.52;;;45.90;42.40;;;;;;5092921;28;20378;-75
2021/07/14 04:38:16;;;;;;;15.57;11.68;;;46.20;42.20;;;;;;5092848;28;20113;-75
2021/07/14 04:40:43;;;;;;;22.80;13.05;;;46.40;42.00;;;;;;5092880;28;20028;-76
2021/07/14 04:43:10;;;;;;;11.70;10.57;;;46.60;41.70;;;;;;5092838;28;20027;-76
2021/07/14 04:45:37;;;;;;;16.75;15.05;;;46.80;41.20;;;;;;5092608;28;20056;-76
2021/07/14 04:48:03;;;;;;;16.70;12.35;;;47.10;40.80;;;;;;5092830;28;20037;-77
2021/07/14 04:50:29;;;;;;;19.23;9.88;;;47.30;40.60;;;;;;5092426;28;20484;-79
2021/07/14 04:52:55;;;;;;;11.60;9.07;;;47.30;40.30;;;;;;5092336;28;20032;-76
2021/07/14 04:55:21;;;;;;;15.50;9.10;;;47.50;39.60;;;;;;5073811;28;20139;-78
2021/07/14 04:57:47;;;;;;;12.98;8.68;;;47.50;39.60;;;;;;5092239;28;20031;-77
2021/07/14 05:00:16;;;;;;;18.25;8.65;;;47.70;39.30;;;;;;5073868;28;20028;-78
2021/07/14 05:02:45;;;;;;;10.55;8.95;;;47.70;39.00;;;;;;5074031;28;20351;-77
2021/07/14 05:05:15;;;;;;;16.88;9.75;;;47.80;38.80;;;;;;5091239;28;20122;-76
2021/07/14 05:07:41;;;;;;;10.60;8.88;;;48.00;38.70;;;;;;5073764;28;20028;-76
2021/07/14 05:10:10;;;;;;;10.45;8.85;;;48.10;38.70;;;;;;5092037;28;20035;-77
2021/07/14 05:12:36;;;;;;;10.77;9.10;;;48.40;38.50;;;;;;5091835;28;20043;-77
2021/07/14 05:15:02;;;;;;;11.05;8.93;;;48.60;38.30;;;;;;5091734;28;20107;-76
2021/07/14 05:17:28;;;;;;;13.13;9.25;;;48.80;38.00;;;;;;5091854;28;20032;-77
2021/07/14 05:19:54;;;;;;;13.07;9.52;;;49.00;37.90;;;;;;5092035;28;20031;-76
2021/07/14 05:22:21;;;;;;;10.40;9.38;;;49.20;37.20;;;;;;5091585;28;20077;-77
2021/07/14 05:24:46;;;;;;;17.55;8.70;;;49.00;37.10;;;;;;5091457;28;20016;-77
2021/07/14 05:27:12;;;;;;;17.00;8.90;;;49.00;37.40;;;;;;5072781;28;20193;-77
2021/07/14 05:29:38;;;;;;;11.05;9.00;;;49.20;37.40;;;;;;5091182;28;20592;-77
2021/07/14 05:32:05;;;;;;;10.45;9.35;;;49.30;37.10;;;;;;5091491;28;20099;-77
2021/07/14 05:34:31;;;;;;;15.98;10.43;;;49.20;36.70;;;;;;5091146;28;20027;-77
2021/07/14 05:36:57;;;;;;;13.65;9.38;;;49.00;37.00;;;;;;5091205;28;20027;-77
2021/07/14 05:39:23;;;;;;;20.83;10.43;;;49.10;37.10;;;;;;5091715;28;20023;-77
2021/07/14 05:41:49;;;;;;;16.58;9.00;;;49.40;37.00;;;;;;5091374;28;20016;-77
2021/07/14 05:44:16;;;;;;;15.18;8.80;;;49.60;36.50;;;;;;5091289;28;20016;-77
2021/07/14 05:46:43;;;;;;;14.80;9.05;;;50.00;36.50;;;;;;5091208;28;20462;-76
2021/07/14 05:49:09;;;;;;;10.23;8.32;;;50.30;36.20;;;;;;5091143;28;20032;-77
2021/07/14 05:51:35;;;;;;;15.50;8.50;;;50.70;36.00;;;;;;5090833;28;20373;-77
2021/07/14 05:54:00;;;;;;;9.95;8.93;;;51.00;35.80;;;;;;5073566;28;20085;-77
2021/07/14 05:56:26;;;;;;;8.75;7.80;;;51.10;35.50;;;;;;5072804;28;20125;-79
2021/07/14 05:58:53;;;;;;;9.23;8.32;;;51.00;35.20;;;;;;5091514;28;20424;-77
2021/07/14 06:01:19;;;;;;;9.90;8.43;;;50.90;35.00;;;;;;5071687;28;20036;-78
2021/07/14 06:03:47;;;;;;;9.45;8.60;;;51.00;35.00;;;;;;5090090;28;20030;-77
2021/07/14 06:06:16;;;;;;;11.98;8.23;;;51.00;34.90;;;;;;5090359;28;20016;-78
2021/07/14 06:15:58;;;;;;;10.73;7.68;;;51.60;34.50;;;;;;4963361;28;20069;-76
2021/07/14 06:18:24;;;;;;;8.35;7.50;;;51.70;34.30;;;;;;5093319;28;20051;-77
2021/07/14 06:20:51;;;;;;;8.90;8.10;;;51.60;34.20;;;;;;5093650;28;20454;-76
2021/07/14 06:23:17;;;;;;;8.13;7.30;;;51.50;33.90;;;;;;5093873;28;20091;-76
2021/07/14 06:25:43;;;;;;;10.85;8.27;;;51.50;33.70;;;;;;5094173;28;20127;-76
2021/07/14 06:28:12;;;;;;;7.03;6.32;;;51.30;33.70;;;;;;5093909;28;20044;-76
2021/07/14 06:30:39;;;;;;;13.88;10.77;;;51.20;33.60;;;;;;5093664;28;20016;-76
2021/07/14 06:33:05;;;;;;;11.57;8.25;;;51.30;33.80;;;;;;5093761;28;20013;-77
2021/07/14 06:35:31;;;;;;;8.85;7.65;;;51.40;33.60;;;;;;5093747;28;20068;-77
2021/07/14 06:37:58;;;;;;;11.77;7.97;;;51.40;33.40;;;;;;5093599;28;20042;-80
2021/07/14 06:40:24;;;;;;;9.65;8.65;;;51.60;33.60;;;;;;5075948;28;20021;-75
2021/07/14 06:42:50;;;;;;;8.90;8.10;;;51.70;33.60;;;;;;5094356;28;20043;-76
2021/07/14 06:45:16;;;;;;;9.85;8.48;;;51.80;33.40;;;;;;5094799;28;20383;-78
2021/07/14 06:47:42;;;;;;;14.02;8.80;;;51.60;33.10;;;;;;5094894;28;20130;-77
2021/07/14 06:50:10;;;;;;;11.32;8.57;;;51.50;33.40;;;;;;5095127;28;20116;-77
2021/07/14 06:52:39;;;;;;;16.63;8.70;;;51.30;33.20;;;;;;5076983;28;20020;-78
2021/07/14 06:55:05;;;;;;;9.25;8.30;;;50.90;33.60;;;;;;5095046;28;20516;-77
2021/07/14 06:57:31;;;;;;;12.23;8.77;;;50.80;33.60;;;;;;5094650;28;20390;-77
2021/07/14 06:59:57;;;;;;;9.25;8.25;;;50.60;33.70;;;;;;5094218;28;20081;-75
2021/07/14 07:02:23;;;;;;;9.57;8.55;;;50.30;33.70;;;;;;5075321;28;20191;-75
2021/07/14 07:04:48;;;;;;;10.68;7.63;;;50.10;33.80;;;;;;5093862;28;20040;-74
2021/07/14 07:07:14;;;;;;;10.93;8.35;;;50.10;33.60;;;;;;5094193;28;20557;-75
2021/07/14 07:09:41;;;;;;;15.57;8.30;;;50.20;33.70;;;;;;5094298;28;20045;-76
2021/07/14 07:12:07;;;;;;;10.80;7.95;;;50.30;33.80;;;;;;5094021;28;20059;-75
2021/07/14 07:14:33;;;;;;;9.50;8.05;;;50.40;33.70;;;;;;5094358;28;20016;-76
2021/07/14 07:16:58;;;;;;;10.80;8.45;;;50.40;33.80;;;;;;5094292;28;20070;-74
2021/07/14 07:19:24;;;;;;;12.88;8.20;;;50.40;33.60;;;;;;5093998;28;20036;-75
2021/07/14 07:21:51;;;;;;;8.80;7.38;;;50.20;33.20;;;;;;5093093;28;20389;-75
2021/07/14 07:24:17;;;;;;;15.52;7.63;;;49.90;33.30;;;;;;5092937;28;20425;-75
2021/07/14 07:26:47;;;;;;;9.50;7.97;;;49.80;33.60;;;;;;5093365;28;20020;-75
2021/07/14 07:29:13;;;;;;;10.05;7.45;;;49.80;33.30;;;;;;5093110;28;20115;-75
2021/07/14 07:31:40;;;;;;;10.70;7.72;;;49.30;33.40;;;;;;5093737;28;20104;-75
2021/07/14 07:34:06;;;;;;;15.45;9.15;;;48.90;33.70;;;;;;5093696;28;20028;-75
2021/07/14 07:36:32;;;;;;;10.27;7.05;;;48.60;33.70;;;;;;5093717;28;20031;-75
2021/07/14 07:38:58;;;;;;;11.68;7.50;;;48.40;33.50;;;;;;5093773;28;20073;-74
2021/07/14 07:41:26;;;;;;;8.80;7.72;;;48.00;33.80;;;;;;5093750;28;20032;-76
2021/07/14 07:43:53;;;;;;;13.13;7.40;;;47.70;34.20;;;;;;5075296;28;20406;-75
2021/07/14 07:46:19;;;;;;;9.98;7.55;;;47.40;34.50;;;;;;5093272;28;20032;-75
2021/07/14 07:48:45;;;;;;;11.52;7.35;;;47.20;35.00;;;;;;5093576;28;20023;-74
2021/07/14 07:51:11;;;;;;;11.88;7.20;;;47.10;35.00;;;;;;5093779;28;20024;-77
2021/07/14 07:53:38;;;;;;;10.65;7.35;;;47.20;34.50;;;;;;5093623;28;20035;-75
2021/07/14 07:56:04;;;;;;;16.05;7.60;;;46.90;34.20;;;;;;5093268;28;20486;-79
2021/07/14 07:58:30;;;;;;;8.43;7.22;;;46.60;34.70;;;;;;5092943;28;20063;-76
2021/07/14 08:00:58;;;;;;;13.00;7.10;;;46.40;34.70;;;;;;5093537;28;20770;-76
2021/07/14 08:03:24;;;;;;;13.40;6.68;;;46.00;35.00;;;;;;5075334;28;20489;-77
2021/07/14 08:05:50;;;;;;;7.63;6.78;;;45.90;35.30;;;;;;5093562;28;20032;-77
2021/07/14 08:08:16;;;;;;;9.38;6.20;;;45.70;35.00;;;;;;5093146;28;20027;-75
2021/07/14 08:10:46;;;;;;;10.02;6.60;;;45.50;35.00;;;;;;5093182;28;20016;-76
2021/07/14 08:13:12;;;;;;;11.82;6.88;;;45.10;35.30;;;;;;5075272;28;20023;-76
2021/07/14 08:15:37;;;;;;;20.00;8.02;;;44.60;36.00;;;;;;5093142;28;20024;-77
2021/07/14 08:18:04;;;;;;;9.07;6.88;;;44.20;36.80;;;;;;5092809;28;20035;-82
2021/07/14 08:20:30;;;;;;;11.48;7.30;;;43.90;37.10;;;;;;5092909;28;20069;-78
2021/07/14 08:22:56;;;;;;;9.45;7.05;;;43.50;37.20;;;;;;5092975;28;20032;-77
2021/07/14 08:25:22;;;;;;;10.98;8.32;;;43.20;37.10;;;;;;5092995;28;20386;-77
2021/07/14 08:27:48;;;;;;;12.68;8.88;;;42.90;37.70;;;;;;5092849;28;20016;-76
2021/07/14 08:30:15;;;;;;;11.90;6.65;;;42.80;38.10;;;;;;5092741;28;20074;-81
2021/07/14 08:32:40;;;;;;;9.13;6.72;;;42.60;37.50;;;;;;5092879;28;20420;-78
2021/07/14 08:35:08;;;;;;;8.75;6.18;;;42.30;37.40;;;;;;5092561;28;20028;-78
2021/07/14 08:37:34;;;;;;;7.80;6.22;;;41.60;37.50;;;;;;5093137;28;20155;-78
2021/07/14 08:40:00;;;;;;;7.90;5.90;;;41.40;38.10;;;;;;5074356;28;20326;-82
2021/07/14 08:42:26;;;;;;;6.43;5.60;;;41.40;38.40;;;;;;5076457;28;20111;-78
2021/07/14 08:44:54;;;;;;;14.80;6.47;;;41.30;38.30;;;;;;5075126;28;20451;-83
2021/07/14 08:47:20;;;;;;;13.27;5.90;;;41.40;37.80;;;;;;5093169;28;20028;-82
2021/07/14 08:49:49;;;;;;;9.27;6.28;;;41.40;37.70;;;;;;5093524;28;20028;-82
2021/07/14 08:52:18;;;;;;;10.23;7.15;;;41.10;37.80;;;;;;5092792;28;20077;-79
2021/07/14 08:54:45;;;;;;;11.73;7.45;;;40.70;38.30;;;;;;5093283;28;20048;-80
2021/07/14 08:57:16;;;;;;;8.90;7.43;;;40.50;38.80;;;;;;5093757;28;20378;-82
2021/07/14 08:59:42;;;;;;;;;;;40.10;39.00;;;;;;5093783;28;20040;-79
2021/07/14 09:02:08;;;;;;;10.43;8.00;;;39.90;39.30;;;;;;5093263;28;20405;-80
2021/07/14 09:04:35;;;;;;;11.98;7.53;;;40.00;40.00;;;;;;5092462;28;20064;-79
2021/07/14 09:07:01;;;;;;;11.77;7.78;;;40.00;40.00;;;;;;5091799;28;20462;-80
2021/07/14 09:09:28;;;;;;;12.40;7.75;;;39.90;39.80;;;;;;5090947;28;20043;-80
2021/07/14 09:11:59;;;;;;;8.52;7.32;;;39.80;39.90;;;;;;5091772;28;20023;-81
2021/07/14 09:14:46;;;;;;;14.23;7.68;;;39.80;39.70;;;;;;5089658;28;20019;-80
2021/07/14 09:17:25;;;;;;;12.68;7.55;;;39.50;39.70;;;;;;5071031;28;20028;-80
2021/07/14 09:19:53;;;;;;;13.52;7.00;;;39.20;39.80;;;;;;5088873;28;20051;-80
2021/07/14 09:22:26;;;;;;;9.80;6.70;;;39.10;40.50;;;;;;5090983;28;21350;-79
2021/07/14 09:24:56;;;;;;;10.38;7.28;;;39.10;40.30;;;;;;5088713;28;20198;-81
2021/07/14 09:27:28;;;;;;;12.80;7.32;;;39.00;40.50;;;;;;5090767;28;20027;-79
2021/07/14 09:30:10;;;;;;;10.90;8.20;;;38.90;40.80;;;;;;5090699;28;20040;-80
2021/07/14 09:33:10;;;;;;;15.73;8.48;;;38.80;40.80;;;;;;5089999;28;20457;-81
2021/07/14 09:35:46;;;;;;;12.25;8.38;;;38.40;41.30;;;;;;5091719;28;20027;-80
2021/07/14 09:38:20;;;;;;;11.38;8.43;;;38.20;41.80;;;;;;5090041;28;20012;-80
2021/07/14 09:40:54;;;;;;;14.57;8.52;;;38.10;42.10;;;;;;5088100;28;20468;-80
2021/07/14 09:43:26;;;;;;;12.90;8.43;;;37.90;42.50;;;;;;5090526;28;20059;-81
2021/07/14 09:45:57;;;;;;;11.00;8.40;;;37.70;42.70;;;;;;5090787;28;20069;-80
2021/07/14 09:48:26;;;;;;;;;;;37.40;43.00;;;;;;5091423;28;20803;-81
2021/07/14 09:50:56;;;;;;;9.57;7.88;;;37.00;43.10;;;;;;5090160;28;19926;-80
2021/07/14 09:53:24;;;;;;;10.13;8.48;;;36.90;43.00;;;;;;5090318;28;20061;-81
2021/07/14 09:55:53;;;;;;;8.73;7.90;;;36.70;43.00;;;;;;5091466;28;20131;-80
2021/07/14 09:58:25;;;;;;;13.63;8.05;;;36.60;42.90;;;;;;5091814;28;20028;-81
2021/07/14 10:00:55;;;;;;;12.27;7.80;;;36.50;43.50;;;;;;5090345;28;20367;-80
2021/07/14 10:03:26;;;;;;;10.53;7.80;;;36.60;43.30;;;;;;5090674;28;20020;-80
2021/07/14 10:06:11;;;;;;;9.40;7.87;;;36.60;43.10;;;;;;5090843;28;20024;-80
2021/07/14 10:08:48;;;;;;;14.93;7.68;;;36.50;43.40;;;;;;5087816;28;20103;-80
2021/07/14 10:11:19;;;;;;;12.93;9.05;;;36.50;43.70;;;;;;5090130;28;20016;-81
2021/07/14 10:13:59;;;;;;;13.45;7.22;;;36.50;43.70;;;;;;5090326;28;20374;-82
2021/07/14 10:16:33;;;;;;;9.23;7.97;;;36.50;43.40;;;;;;5089483;28;20042;-79
2021/07/14 10:19:03;;;;;;;13.25;7.45;;;36.20;43.80;;;;;;5087752;28;20102;-78
2021/07/14 10:21:30;;;;;;;15.25;7.75;;;36.10;44.00;;;;;;5089940;28;20035;-79
2021/07/14 10:23:57;;;;;;;10.35;8.10;;;36.10;44.60;;;;;;5089661;28;20023;-78
2021/07/14 10:26:23;;;;;;;10.82;8.02;;;36.30;44.70;;;;;;5090283;28;20478;-79
2021/07/14 10:28:50;;;;;;;13.30;8.18;;;36.20;44.10;;;;;;5090005;28;20036;-78
2021/07/14 10:31:20;;;;;;;8.43;7.53;;;36.00;44.20;;;;;;5087280;28;20374;-78
2021/07/14 10:33:47;;;;;;;9.25;7.30;;;35.80;44.70;;;;;;5090524;28;20336;-77
2021/07/14 10:36:14;;;;;;;8.93;8.02;;;35.70;44.90;;;;;;5091034;28;20028;-77
2021/07/14 10:38:49;;;;;;;10.05;7.70;;;35.50;44.90;;;;;;5091035;28;20443;-77
2021/07/14 10:41:16;;;;;;;8.13;7.07;;;35.40;45.50;;;;;;5091255;28;20020;-78
2021/07/14 10:43:44;;;;;;;10.25;7.00;;;35.40;45.60;;;;;;5071687;28;20142;-77
2021/07/14 10:46:11;;;;;;;15.18;7.53;;;35.50;45.20;;;;;;5089832;28;20474;-78
2021/07/14 10:48:41;;;;;;;14.98;8.52;;;35.50;45.00;;;;;;5089780;28;20024;-77
2021/07/14 10:51:07;;;;;;;9.27;7.80;;;35.40;45.50;;;;;;5087105;28;20016;-79
2021/07/14 10:53:35;;;;;;;15.85;8.02;;;35.40;45.20;;;;;;5089766;28;20024;-78
2021/07/14 10:56:02;;;;;;;11.98;7.72;;;35.40;45.20;;;;;;5089417;28;20814;-77
2021/07/14 10:58:30;;;;;;;13.82;7.90;;;35.40;45.50;;;;;;5087321;28;20415;-79
2021/07/14 11:00:59;;;;;;;12.80;7.28;;;35.30;45.90;;;;;;5071816;28;20027;-78
2021/07/14 11:03:37;;;;;;;9.13;7.00;;;35.40;46.10;;;;;;5091806;28;20016;-80
2021/07/14 11:06:04;;;;;;;8.63;6.82;;;35.50;45.30;;;;;;5093236;28;20077;-78
2021/07/14 11:08:43;;;;;;;9.10;7.22;;;35.50;44.60;;;;;;5093318;28;20049;-79
2021/07/14 11:11:20;;;;;;;9.35;7.55;;;35.20;45.10;;;;;;5090894;28;20070;-79
2021/07/14 11:14:10;;;;;;;14.32;7.20;;;35.00;45.00;;;;;;5093446;28;20020;-78
2021/07/14 11:16:37;;;;;;;10.20;6.78;;;35.00;45.00;;;;;;5074889;28;20040;-86
2021/07/14 11:19:10;;;;;;;12.95;6.70;;;34.90;44.90;;;;;;5094529;28;20016;-82
2021/07/14 11:21:48;;;;;;;14.98;6.13;;;34.90;45.30;;;;;;5093411;28;20024;-81
2021/07/14 11:24:54;;;;;;;11.05;6.95;;;34.90;44.90;;;;;;5091821;28;20019;-82
2021/07/14 11:27:22;;;;;;;11.73;6.65;;;34.80;45.10;;;;;;5092233;28;20099;-82
2021/07/14 11:29:49;;;;;;;11.90;7.07;;;34.80;44.60;;;;;;5072261;28;20077;-82
2021/07/14 11:32:33;;;;;;;13.50;6.25;;;34.70;44.90;;;;;;5093046;28;20382;-82
2021/07/14 11:35:13;;;;;;;11.32;6.15;;;34.60;44.70;;;;;;5091822;28;20757;-81
2021/07/14 11:37:56;;;;;;;9.68;6.20;;;34.50;44.50;;;;;;5091746;28;20024;-82
2021/07/14 11:40:23;;;;;;;7.80;5.93;;;34.50;44.60;;;;;;5092456;28;20389;-83
2021/07/14 11:43:25;;;;;;;6.90;5.03;;;34.40;44.30;;;;;;5092949;28;20035;-81
2021/07/14 11:46:14;;;;;;;10.07;5.95;;;34.30;43.90;;;;;;5091508;28;20035;-81
2021/07/14 11:48:42;;;;;;;7.82;5.75;;;34.20;44.20;;;;;;5091910;28;20103;-81
2021/07/14 11:51:17;;;;;;;10.38;5.60;;;34.20;44.00;;;;;;5090358;28;20020;-81
2021/07/14 11:53:48;;;;;;;9.40;5.57;;;34.10;43.90;;;;;;5093071;28;20020;-79
2021/07/14 11:56:19;;;;;;;8.93;5.20;;;33.90;43.40;;;;;;5092190;28;20070;-80
2021/07/14 11:58:47;;;;;;;9.27;4.80;;;33.80;43.80;;;;;;5074276;28;20485;-79
2021/07/14 12:01:21;;;;;;;9.95;5.80;;;33.80;43.80;;;;;;5092117;28;20016;-79
2021/07/14 12:04:01;;;;;;;9.18;4.97;;;33.80;44.30;;;;;;5092174;28;20027;-79
2021/07/14 12:06:39;;;;;;;8.18;5.38;;;33.80;44.00;;;;;;5089332;28;20484;-78
2021/07/14 12:09:24;;;;;;;6.53;4.72;;;33.80;43.60;;;;;;5073962;28;20887;-78
2021/07/14 12:11:55;;;;;;;5.93;5.32;;;33.70;43.80;;;;;;5093422;28;20024;-78
2021/07/14 12:14:32;;;;;;;8.43;4.68;;;33.60;43.70;;;;;;5093531;28;20098;-78
2021/07/14 12:23:20;;;;;;;11.32;4.97;;;33.60;43.80;;;;;;5093347;28;20085;-80
2021/07/14 12:26:00;;;;;;;13.23;4.28;;;33.50;44.00;;;;;;5077716;28;20057;-81
2021/07/14 12:28:32;;;;;;;7.43;5.10;;;33.40;43.70;;;;;;5093097;28;20024;-78
2021/07/14 12:31:19;;;;;;;7.07;4.40;;;33.30;44.10;;;;;;5096394;28;20102;-78
2021/07/14 12:33:53;;;;;;;7.38;4.30;;;33.20;43.90;;;;;;5092992;28;20098;-78
2021/07/14 12:50:05;;;;;;;10.55;4.75;;;32.90;43.80;;;;;;5837107;22;20054;-73
2021/07/14 12:52:31;;;;;;;8.32;4.35;;;33.00;43.70;;;;;;4992299;28;20026;-73
2021/07/14 12:54:59;;;;;;;10.40;4.30;;;32.90;43.60;;;;;;4992285;28;20098;-72
2021/07/14 12:57:30;;;;;;;8.50;4.88;;;32.90;43.90;;;;;;4992161;28;20022;-75
2021/07/14 12:59:59;;;;;;;10.95;5.05;;;32.90;44.40;;;;;;4992883;28;20018;-75
2021/07/14 13:02:52;;;;;;;12.68;4.97;;;32.90;44.50;;;;;;4992593;28;20049;-75
2021/07/14 13:05:23;;;;;;;6.18;4.95;;;32.80;44.00;;;;;;4992259;28;20037;-75
2021/07/14 13:07:51;;;;;;;10.82;5.07;;;32.80;44.00;;;;;;4992394;28;20019;-75
2021/07/14 13:10:18;;;;;;;7.05;4.78;;;32.80;44.30;;;;;;4992040;28;20165;-75
2021/07/14 13:12:47;;;;;;;5.40;4.50;;;32.70;44.30;;;;;;4991975;28;20034;-75
2021/07/14 13:15:26;;;;;;;17.63;5.00;;;32.70;44.00;;;;;;4974457;28;20109;-75
2021/07/14 13:18:06;;;;;;;18.33;14.52;;;32.60;44.10;;;;;;4974487;28;20060;-76
2021/07/14 13:20:39;;;;;;;9.85;3.78;;;32.60;44.20;;;;;;4974112;28;20034;-74
2021/07/14 13:23:07;;;;;;;8.93;4.55;;;32.50;44.00;;;;;;4991322;28;20029;-75
2021/07/14 13:25:44;;;;;;;10.82;5.30;;;32.50;44.20;;;;;;4991352;28;20030;-76